createdAt,value
2019-05-02T00:00:54.018Z,99.90
2019-05-02T00:03:29.898Z,99.90
2019-05-02T00:06:03.006Z,99.90
2019-05-02T00:08:34.618Z,99.90
2019-05-02T00:11:05.220Z,99.90
2019-05-02T00:13:37.086Z,99.90
2019-05-02T00:16:09.053Z,99.90
2019-05-02T00:18:41.020Z,99.90
2019-05-02T00:21:18.006Z,99.90
2019-05-02T00:23:49.703Z,99.90
2019-05-02T00:26:27.178Z,99.90
2019-05-02T00:28:58.154Z,99.90
2019-05-02T00:31:29.739Z,99.90
2019-05-02T00:34:22.187Z,99.90
2019-05-02T01:03:16.141Z,99.90
2019-05-02T01:05:45.370Z,99.90
2019-05-02T01:08:18.120Z,99.90
2019-05-02T01:10:52.139Z,99.90
2019-05-02T01:13:33.269Z,99.90
2019-05-02T01:16:06.317Z,99.90
2019-05-02T01:18:41.421Z,99.90
2019-05-02T01:21:15.157Z,99.90
2019-05-02T01:23:46.492Z,99.90
2019-05-02T01:26:33.643Z,99.90
2019-05-02T01:29:14.404Z,99.90
2019-05-02T01:31:55.916Z,99.90
2019-05-02T01:34:49.083Z,99.90
2019-05-02T01:37:27.040Z,99.90
2019-05-02T01:39:58.588Z,99.90
2019-05-02T01:42:39.541Z,99.90
2019-05-02T01:45:06.823Z,99.90
2019-05-02T01:47:38.429Z,99.90
2019-05-02T01:50:09.539Z,99.90
2019-05-02T01:52:41.248Z,99.90
2019-05-02T01:55:17.082Z,99.90
2019-05-02T01:57:46.280Z,99.90
2019-05-02T02:00:26.096Z,99.90
2019-05-02T02:02:57.342Z,99.90
2019-05-02T02:05:32.254Z,99.90
2019-05-02T02:08:01.524Z,99.90
2019-05-02T02:10:32.489Z,99.90
2019-05-02T02:13:05.226Z,99.90
2019-05-02T02:15:35.922Z,99.90
2019-05-02T02:18:12.400Z,99.90
2019-05-02T02:20:51.053Z,99.90
2019-05-02T02:23:49.672Z,99.90
2019-05-02T02:26:19.038Z,99.90
2019-05-02T02:29:03.068Z,99.90
2019-05-02T02:31:39.938Z,99.90
2019-05-02T02:34:05.507Z,99.90
2019-05-02T02:36:36.596Z,99.90
2019-05-02T02:39:14.968Z,99.90
2019-05-02T02:41:45.224Z,99.90
2019-05-02T02:44:33.547Z,99.90
2019-05-02T02:47:12.160Z,99.90
2019-05-02T02:49:39.002Z,99.90
2019-05-02T02:52:10.211Z,99.90
2019-05-02T02:54:44.948Z,99.90
2019-05-02T02:57:25.696Z,99.90
2019-05-02T03:00:06.373Z,99.90
2019-05-02T03:02:26.497Z,99.90
2019-05-02T03:04:58.443Z,99.90
2019-05-02T03:07:29.511Z,99.90
2019-05-02T03:10:06.284Z,99.90
2019-05-02T03:12:51.190Z,99.90
2019-05-02T03:15:28.070Z,99.90
2019-05-02T03:17:59.881Z,99.90
2019-05-02T03:20:40.103Z,99.90
2019-05-02T03:23:03.830Z,99.90
2019-05-02T03:25:49.933Z,99.90
2019-05-02T03:28:17.309Z,99.90
2019-05-02T03:30:40.437Z,99.90
2019-05-02T03:33:12.745Z,99.90
2019-05-02T03:35:49.195Z,99.90
2019-05-02T03:38:17.772Z,99.90
2019-05-02T03:40:49.170Z,99.90
2019-05-02T03:43:25.812Z,99.90
2019-05-02T03:45:53.929Z,99.90
2019-05-02T03:48:36.145Z,99.90
2019-05-02T03:51:19.669Z,99.90
2019-05-02T03:53:40.029Z,99.90
2019-05-02T03:56:13.918Z,99.90
2019-05-02T03:58:48.344Z,99.90
2019-05-02T04:01:21.072Z,99.90
2019-05-02T04:03:53.181Z,99.90
2019-05-02T04:06:24.505Z,99.90
2019-05-02T04:08:59.996Z,99.90
2019-05-02T04:11:37.938Z,99.90
2019-05-02T04:14:00.960Z,99.90
2019-05-02T04:16:32.721Z,99.90
2019-05-02T04:19:07.169Z,99.90
2019-05-02T04:21:38.904Z,99.90
2019-05-02T04:24:15.747Z,99.90
2019-05-02T04:26:53.358Z,99.90
2019-05-02T04:29:17.778Z,99.90
2019-05-02T04:31:48.808Z,99.90
2019-05-02T04:34:19.958Z,99.90
2019-05-02T04:37:05.707Z,99.90
2019-05-02T04:39:39.027Z,99.90
2019-05-02T04:42:18.714Z,99.90
2019-05-02T04:45:07.663Z,99.90
2019-05-02T04:47:20.834Z,99.90
2019-05-02T04:49:52.105Z,99.90
2019-05-02T04:52:22.843Z,99.90
2019-05-02T04:55:08.384Z,99.90
2019-05-02T04:57:37.119Z,99.90
2019-05-02T05:00:06.504Z,99.90
2019-05-02T05:02:41.224Z,99.90
2019-05-02T05:05:17.315Z,99.90
2019-05-02T05:07:47.136Z,99.90
2019-05-02T05:10:20.043Z,99.90
2019-05-02T05:12:51.684Z,99.90
2019-05-02T05:15:37.178Z,99.90
2019-05-02T05:17:58.219Z,99.90
2019-05-02T05:20:29.292Z,99.90
2019-05-02T05:23:01.289Z,99.90
2019-05-02T05:25:38.001Z,99.90
2019-05-02T05:28:09.120Z,99.90
2019-05-02T05:30:45.228Z,96.10
2019-05-02T05:33:14.362Z,92.70
2019-05-02T05:35:58.040Z,91.40
2019-05-02T05:38:32.706Z,88.50
2019-05-02T05:41:13.167Z,80.20
2019-05-02T05:43:44.760Z,75.90
2019-05-02T05:46:17.996Z,71.60
2019-05-02T05:48:49.725Z,67.30
2019-05-02T05:51:24.704Z,65.00
2019-05-02T05:54:03.148Z,61.00
2019-05-02T05:56:39.664Z,58.80
2019-05-02T05:59:07.753Z,60.30
2019-05-02T06:01:39.159Z,59.70
2019-05-02T06:04:13.976Z,63.80
2019-05-02T06:06:42.658Z,68.60
2019-05-02T06:09:16.509Z,72.00
2019-05-02T06:11:58.154Z,71.00
2019-05-02T06:14:29.388Z,69.40
2019-05-02T06:17:02.124Z,66.80
2019-05-02T06:19:33.104Z,68.20
2019-05-02T06:22:04.711Z,68.00
2019-05-02T06:24:36.440Z,66.40
2019-05-02T06:27:07.955Z,63.70
2019-05-02T06:29:39.922Z,59.60
2019-05-02T06:32:14.001Z,59.70
2019-05-02T06:34:46.621Z,59.60
2019-05-02T06:37:17.433Z,61.10
2019-05-02T06:39:48.759Z,62.40
2019-05-02T06:42:19.663Z,59.80
2019-05-02T06:44:54.872Z,59.30
2019-05-02T06:47:24.229Z,59.50
2019-05-02T06:50:00.813Z,60.10
2019-05-02T06:52:32.735Z,60.60
2019-05-02T06:55:02.872Z,60.70
2019-05-02T06:57:33.873Z,60.00
2019-05-02T07:00:06.542Z,58.00
2019-05-02T07:02:37.702Z,58.50
2019-05-02T07:05:08.955Z,58.00
2019-05-02T07:07:39.708Z,57.90
2019-05-02T07:10:19.993Z,60.00
2019-05-02T07:12:51.187Z,58.80
2019-05-02T07:15:37.974Z,56.10
2019-05-02T07:18:10.729Z,54.40
2019-05-02T07:20:42.642Z,51.60
2019-05-02T07:23:16.433Z,52.60
2019-05-02T07:25:46.723Z,54.30
2019-05-02T07:28:18.429Z,52.80
2019-05-02T07:30:49.060Z,53.10
2019-05-02T07:33:20.116Z,50.20
2019-05-02T07:35:55.158Z,49.30
2019-05-02T07:38:25.784Z,48.80
2019-05-02T07:40:57.576Z,49.20
2019-05-02T07:43:28.738Z,50.70
2019-05-02T07:45:59.799Z,51.90
2019-05-02T07:48:31.068Z,52.50
2019-05-02T07:51:02.060Z,53.70
2019-05-02T07:53:33.649Z,53.10
2019-05-02T07:56:05.069Z,51.20
2019-05-02T07:58:38.496Z,50.70
2019-05-02T08:01:13.426Z,51.70
2019-05-02T08:03:42.771Z,53.80
2019-05-02T08:06:14.407Z,52.10
2019-05-02T08:08:45.688Z,50.60
2019-05-02T08:11:16.657Z,49.30
2019-05-02T08:13:49.468Z,49.90
2019-05-02T08:16:22.321Z,47.80
2019-05-02T08:18:53.346Z,47.00
2019-05-02T08:21:27.310Z,49.20
2019-05-02T08:24:01.762Z,49.90
2019-05-02T08:26:45.624Z,48.10
2019-05-02T08:29:17.062Z,47.60
2019-05-02T08:31:48.064Z,46.20
2019-05-02T08:34:32.814Z,45.20
2019-05-02T08:37:04.914Z,45.70
2019-05-02T08:39:36.363Z,49.80
2019-05-02T08:42:08.332Z,50.90
2019-05-02T08:44:50.720Z,49.60
2019-05-02T08:47:19.068Z,48.00
2019-05-02T08:49:49.451Z,49.10
2019-05-02T08:52:20.392Z,52.30
2019-05-02T08:54:52.023Z,52.20
2019-05-02T08:57:23.946Z,49.30
2019-05-02T08:59:55.340Z,47.80
2019-05-02T09:02:40.564Z,46.10
2019-05-02T09:05:04.569Z,46.10
2019-05-02T09:07:37.197Z,47.10
2019-05-02T09:10:08.107Z,49.40
2019-05-02T09:12:42.253Z,48.70
2019-05-02T09:15:11.910Z,49.10
2019-05-02T09:17:44.698Z,49.10
2019-05-02T09:20:20.608Z,48.60
2019-05-02T09:22:52.220Z,49.10
2019-05-02T09:25:22.978Z,47.10
2019-05-02T09:27:54.643Z,46.20
2019-05-02T09:30:25.982Z,48.70
2019-05-02T09:33:02.847Z,50.60
2019-05-02T09:35:30.495Z,50.30
2019-05-02T09:38:01.904Z,51.30
2019-05-02T09:40:33.339Z,52.60
2019-05-02T09:43:04.774Z,52.70
2019-05-02T09:45:37.540Z,51.60
2019-05-02T09:48:08.687Z,52.10
2019-05-02T09:50:39.730Z,51.60
2019-05-02T09:53:14.281Z,50.70
2019-05-02T09:55:50.161Z,51.20
2019-05-02T09:58:21.285Z,49.00
2019-05-02T10:01:18.547Z,49.50
2019-05-02T10:03:51.891Z,49.80
2019-05-02T10:06:23.721Z,51.60
2019-05-02T10:08:54.959Z,51.40
2019-05-02T10:11:26.674Z,52.40
2019-05-02T10:13:58.213Z,49.90
2019-05-02T10:16:31.768Z,50.80
2019-05-02T10:19:09.520Z,50.00
2019-05-02T10:21:37.371Z,51.30
2019-05-02T10:24:08.215Z,48.80
2019-05-02T10:26:41.840Z,43.90
2019-05-02T10:29:12.959Z,40.80
2019-05-02T10:31:44.170Z,38.90
2019-05-02T10:34:17.639Z,38.90
2019-05-02T10:36:53.693Z,42.40
2019-05-02T10:39:20.612Z,45.30
2019-05-02T10:41:52.738Z,46.60
2019-05-02T10:44:27.150Z,48.30
2019-05-02T10:47:02.909Z,48.80
2019-05-02T10:49:59.615Z,47.60
2019-05-02T10:52:34.044Z,45.70
2019-05-02T10:55:03.721Z,45.50
2019-05-02T10:57:35.455Z,45.30
2019-05-02T11:00:07.924Z,45.20
2019-05-02T11:02:49.947Z,44.80
2019-05-02T11:05:26.423Z,42.30
2019-05-02T11:07:56.853Z,45.00
2019-05-02T11:10:29.677Z,45.30
2019-05-02T11:13:21.705Z,44.10
2019-05-02T11:16:12.365Z,41.70
2019-05-02T11:19:02.796Z,43.20
2019-05-02T11:21:34.484Z,42.20
2019-05-02T11:24:06.252Z,42.70
2019-05-02T11:26:37.610Z,43.50
2019-05-02T11:29:09.047Z,42.70
2019-05-02T11:31:40.317Z,43.70
2019-05-02T11:34:12.388Z,43.00
2019-05-02T11:36:43.837Z,42.30
2019-05-02T11:39:29.943Z,41.90
2019-05-02T11:41:53.512Z,41.70
2019-05-02T11:44:24.875Z,42.30
2019-05-02T11:46:55.868Z,41.80
2019-05-02T11:49:27.513Z,40.50
2019-05-02T11:52:01.456Z,41.00
2019-05-02T11:54:32.728Z,39.90
2019-05-02T11:57:04.054Z,40.10
2019-05-02T11:59:39.535Z,40.30
2019-05-02T12:02:31.881Z,40.00
2019-05-02T12:05:02.491Z,39.70
2019-05-02T12:07:34.211Z,38.90
2019-05-02T12:10:05.369Z,38.30
2019-05-02T12:12:37.068Z,40.00
2019-05-02T12:15:08.631Z,38.80
2019-05-02T12:17:41.990Z,40.30
2019-05-02T12:20:13.279Z,39.30
2019-05-02T12:22:44.336Z,41.20
2019-05-02T12:25:16.216Z,40.30
2019-05-02T12:27:47.441Z,39.20
2019-05-02T12:30:19.039Z,39.70
2019-05-02T12:32:52.968Z,38.00
2019-05-02T12:35:23.847Z,38.60
2019-05-02T12:37:59.695Z,39.30
2019-05-02T12:40:32.554Z,39.80
2019-05-02T12:43:03.746Z,38.80
2019-05-02T12:45:35.371Z,39.80
2019-05-02T12:48:06.226Z,37.90
2019-05-02T12:50:37.613Z,40.20
2019-05-02T12:53:08.572Z,39.70
2019-05-02T12:55:41.956Z,40.80
2019-05-02T12:58:13.148Z,40.80
2019-05-02T13:00:43.769Z,38.80
2019-05-02T13:03:46.608Z,39.50
2019-05-02T13:06:17.926Z,40.60
2019-05-02T13:08:52.632Z,40.40
2019-05-02T13:11:45.683Z,41.50
2019-05-02T13:14:19.514Z,41.00
2019-05-02T13:16:53.561Z,41.20
2019-05-02T13:19:36.784Z,40.40
2019-05-02T13:22:26.943Z,40.80
2019-05-02T13:25:04.487Z,42.40
2019-05-02T13:27:44.326Z,41.80
2019-05-02T13:30:12.409Z,41.40
2019-05-02T13:32:48.154Z,42.00
2019-05-02T13:35:36.741Z,41.80
2019-05-02T13:38:09.357Z,42.80
2019-05-02T13:40:44.331Z,44.50
2019-05-02T13:43:16.333Z,47.90
2019-05-02T13:46:06.494Z,49.40
2019-05-02T13:48:44.122Z,51.20
2019-05-02T13:51:19.163Z,53.20
2019-05-02T13:54:03.322Z,54.10
2019-05-02T13:56:52.780Z,56.10
2019-05-02T13:59:23.336Z,57.20
2019-05-02T14:01:55.461Z,58.00
2019-05-02T14:04:27.031Z,61.70
2019-05-02T14:06:58.785Z,66.70
2019-05-02T14:09:58.695Z,71.50
2019-05-02T14:12:48.897Z,74.10
2019-05-02T14:15:22.472Z,76.90
2019-05-02T14:17:54.579Z,79.80
2019-05-02T14:20:26.298Z,85.60
2019-05-02T14:22:58.066Z,89.30
2019-05-02T14:25:32.127Z,91.60
2019-05-02T14:28:03.829Z,93.60
2019-05-02T14:30:40.826Z,94.40
2019-05-02T14:33:14.366Z,94.30
2019-05-02T14:35:46.264Z,92.80
2019-05-02T14:38:22.105Z,90.90
2019-05-02T14:41:21.915Z,89.80
2019-05-02T14:43:54.111Z,90.80
2019-05-02T14:46:35.354Z,90.80
2019-05-02T14:48:59.888Z,92.00
2019-05-02T14:51:36.747Z,90.90
2019-05-02T14:54:09.111Z,90.10
2019-05-02T14:56:48.281Z,89.60
2019-05-02T14:59:20.082Z,88.50
2019-05-02T15:01:57.701Z,87.90
2019-05-02T15:04:31.969Z,87.00
2019-05-02T15:07:02.986Z,84.80
2019-05-02T15:09:36.148Z,84.10
2019-05-02T15:12:13.501Z,82.70
2019-05-02T15:14:40.416Z,81.80
2019-05-02T15:17:12.237Z,80.00
2019-05-02T15:19:44.132Z,79.80
2019-05-02T15:22:18.814Z,80.00
2019-05-02T15:24:52.764Z,80.40
2019-05-02T15:27:23.679Z,79.30
2019-05-02T15:30:06.677Z,78.80
2019-05-02T15:32:56.794Z,78.50
2019-05-02T15:35:42.536Z,77.70
2019-05-02T15:38:37.308Z,77.10
2019-05-02T15:41:09.508Z,75.40
2019-05-02T15:43:44.503Z,74.70
2019-05-02T15:46:17.332Z,74.90
2019-05-02T15:48:45.965Z,73.80
2019-05-02T15:51:17.524Z,73.50
2019-05-02T15:54:05.431Z,74.60
2019-05-02T15:56:29.843Z,72.70
2019-05-02T15:59:03.427Z,72.90
2019-05-02T16:01:56.578Z,71.80
2019-05-02T16:04:34.042Z,70.50
2019-05-02T16:07:12.345Z,71.60
2019-05-02T16:09:43.366Z,71.70
2019-05-02T16:12:14.902Z,72.20
2019-05-02T16:14:46.225Z,71.60
2019-05-02T16:17:42.762Z,72.30
2019-05-02T16:20:18.870Z,73.00
2019-05-02T16:22:52.315Z,73.60
2019-05-02T16:25:24.381Z,73.50
2019-05-02T16:27:57.610Z,74.10
2019-05-02T16:30:31.849Z,72.60
2019-05-02T16:33:02.900Z,73.40
2019-05-02T16:35:35.205Z,74.30
2019-05-02T16:38:06.480Z,74.60
2019-05-02T16:40:37.110Z,75.80
2019-05-02T16:43:08.222Z,76.70
2019-05-02T16:45:39.670Z,76.60
2019-05-02T16:48:11.971Z,77.30
2019-05-02T16:50:45.008Z,78.90
2019-05-02T16:53:17.267Z,77.90
2019-05-02T16:55:48.944Z,77.90
2019-05-02T16:58:20.030Z,79.00
2019-05-02T17:00:52.804Z,80.00
2019-05-02T17:03:26.354Z,80.80
2019-05-02T17:05:56.728Z,81.90
2019-05-02T17:08:36.116Z,81.90
2019-05-02T17:11:35.948Z,83.00
2019-05-02T17:14:11.860Z,82.80
2019-05-02T17:16:42.039Z,84.40
2019-05-02T17:19:13.164Z,84.70
2019-05-02T17:21:54.000Z,86.20
2019-05-02T17:24:22.597Z,86.50
2019-05-02T17:26:51.897Z,87.30
2019-05-02T17:29:23.378Z,88.10
2019-05-02T17:31:59.277Z,88.60
2019-05-02T17:34:30.489Z,89.10
2019-05-02T17:37:06.211Z,89.10
2019-05-02T17:39:37.325Z,90.00
2019-05-02T17:42:07.147Z,90.40
2019-05-02T17:44:38.128Z,90.80
2019-05-02T17:47:09.678Z,91.50
2019-05-02T17:49:42.297Z,91.80
2019-05-02T17:52:20.894Z,92.20
2019-05-02T17:54:52.711Z,92.70
2019-05-02T17:57:23.351Z,93.30
2019-05-02T17:59:54.641Z,93.70
2019-05-02T18:02:26.327Z,93.80
2019-05-02T18:04:57.657Z,94.10
2019-05-02T18:07:35.483Z,94.70
2019-05-02T18:10:05.904Z,94.50
2019-05-02T18:12:35.704Z,94.90
2019-05-02T18:15:06.691Z,95.20
2019-05-02T18:17:37.520Z,95.20
2019-05-02T18:20:12.959Z,95.70
2019-05-02T18:22:48.731Z,96.10
2019-05-02T18:25:23.594Z,96.60
2019-05-02T18:27:51.859Z,96.20
2019-05-02T18:30:27.065Z,96.50
2019-05-02T18:33:03.597Z,96.90
2019-05-02T18:35:43.051Z,96.80
2019-05-02T18:38:15.785Z,96.80
2019-05-02T18:40:47.238Z,97.20
2019-05-02T18:43:18.645Z,97.50
2019-05-02T18:45:51.546Z,97.70
2019-05-02T18:48:25.159Z,97.90
2019-05-02T18:51:05.623Z,98.00
2019-05-02T18:53:44.647Z,98.70
2019-05-02T18:56:22.195Z,98.40
2019-05-02T18:59:03.136Z,98.70
2019-05-02T19:01:34.806Z,98.60
2019-05-02T19:04:05.811Z,98.50
2019-05-02T19:06:37.923Z,98.60
2019-05-02T19:09:12.702Z,99.90
2019-05-02T19:11:44.163Z,99.90
2019-05-02T19:14:22.282Z,99.90
2019-05-02T19:16:52.505Z,99.90
2019-05-02T19:19:33.032Z,99.90
2019-05-02T19:22:17.729Z,99.90
2019-05-02T19:24:49.096Z,99.90
2019-05-02T19:27:39.515Z,99.90
2019-05-02T19:30:27.271Z,99.90
2019-05-02T19:32:57.809Z,99.90
2019-05-02T19:35:32.654Z,99.90
2019-05-02T19:38:03.245Z,99.90
2019-05-02T19:40:34.148Z,99.90
2019-05-02T19:43:07.639Z,99.90
2019-05-02T19:45:39.204Z,99.90
2019-05-02T19:48:12.369Z,99.90
2019-05-02T19:50:53.274Z,99.90
2019-05-02T19:53:26.207Z,99.90
2019-05-02T19:56:00.918Z,99.90
2019-05-02T19:58:32.038Z,99.90
2019-05-02T20:01:03.623Z,99.90
2019-05-02T20:03:36.032Z,99.90
2019-05-02T20:06:06.458Z,99.90
2019-05-02T20:08:37.526Z,99.90
2019-05-02T20:11:17.168Z,99.90
2019-05-02T20:13:48.516Z,99.90
2019-05-02T20:16:44.188Z,99.90
2019-05-02T20:19:17.237Z,99.90
2019-05-02T20:22:05.181Z,99.90
2019-05-02T20:24:59.929Z,99.90
2019-05-02T20:27:28.951Z,99.90
2019-05-02T20:30:04.392Z,99.90
2019-05-02T20:32:37.321Z,99.90
2019-05-02T20:35:09.376Z,99.90
2019-05-02T20:37:42.034Z,99.90
2019-05-02T20:40:31.930Z,99.90
2019-05-02T20:43:03.591Z,99.90
2019-05-02T20:45:34.996Z,99.90
2019-05-02T20:48:06.239Z,99.90
2019-05-02T20:50:38.419Z,99.90
2019-05-02T20:53:12.169Z,99.90
2019-05-02T20:55:42.810Z,99.90
2019-05-02T20:58:21.985Z,99.90
2019-05-02T21:01:05.346Z,99.90
2019-05-02T21:03:27.628Z,99.90
2019-05-02T21:06:12.419Z,99.90
2019-05-02T21:09:02.398Z,99.90
2019-05-02T21:11:35.499Z,99.90
2019-05-02T21:14:07.455Z,99.90
2019-05-02T21:16:43.838Z,99.90
2019-05-02T21:19:23.815Z,99.90
2019-05-02T21:21:56.230Z,99.90
2019-05-02T21:24:27.555Z,99.90
2019-05-02T21:27:01.792Z,99.90
2019-05-02T21:29:33.074Z,99.90
2019-05-02T21:32:03.896Z,99.90
2019-05-02T21:34:37.005Z,99.90
2019-05-02T21:37:09.263Z,99.90
2019-05-02T21:39:46.991Z,99.90
2019-05-02T21:42:18.831Z,99.90
2019-05-02T21:44:51.778Z,99.90
2019-05-02T21:47:23.922Z,99.90
2019-05-02T21:50:09.598Z,99.90
2019-05-02T21:53:04.967Z,99.90
2019-05-02T21:55:46.371Z,99.90
2019-05-02T21:59:17.292Z,99.90
2019-05-02T22:02:24.841Z,99.90
2019-05-02T22:04:56.667Z,99.90
2019-05-02T22:07:29.822Z,99.90
2019-05-02T22:10:03.012Z,99.90
2019-05-02T22:12:34.783Z,99.90
2019-05-02T22:15:08.257Z,99.90
2019-05-02T22:17:41.693Z,99.90
2019-05-02T22:20:13.642Z,99.90
2019-05-02T22:22:44.990Z,99.90
2019-05-02T22:25:24.598Z,99.90
2019-05-02T22:27:59.582Z,99.90
2019-05-02T22:30:32.675Z,99.90
2019-05-02T22:33:07.260Z,99.90
2019-05-02T22:35:43.156Z,99.90
2019-05-02T22:38:28.977Z,99.90
2019-05-02T22:41:01.744Z,99.90
2019-05-02T22:43:34.797Z,99.90
2019-05-02T22:46:23.064Z,99.90
2019-05-02T22:48:53.877Z,99.90
2019-05-02T22:51:24.267Z,99.90
2019-05-02T22:53:55.347Z,99.90
2019-05-02T22:56:27.177Z,99.90
2019-05-02T22:58:58.446Z,99.90
2019-05-02T23:01:29.472Z,99.90
2019-05-02T23:04:01.938Z,99.90
2019-05-02T23:06:33.646Z,99.90
2019-05-02T23:09:06.242Z,99.90
2019-05-02T23:11:37.136Z,99.90
2019-05-02T23:14:09.826Z,99.90
2019-05-02T23:16:42.743Z,99.90
2019-05-02T23:19:13.669Z,99.90
2019-05-02T23:21:45.168Z,99.90
2019-05-02T23:24:23.771Z,99.90
2019-05-02T23:27:13.374Z,99.90
2019-05-02T23:29:44.721Z,99.90
2019-05-02T23:32:16.393Z,99.90
2019-05-02T23:34:48.062Z,99.90
2019-05-02T23:37:19.723Z,99.90
2019-05-02T23:39:52.266Z,99.90
2019-05-02T23:42:26.291Z,99.90
2019-05-02T23:44:58.188Z,99.90
2019-05-02T23:47:30.277Z,99.90
2019-05-02T23:50:02.818Z,99.90
2019-05-02T23:52:34.628Z,99.90
2019-05-02T23:55:05.848Z,99.90
2019-05-02T23:57:42.219Z,99.90
